Time;durP1;ratioP1;P1;durP2;ratioP2;P2;SDS_P1;SDS_P2;PMS_P1;PMS_P2;Temp;Humidity;BMP_temperature;BMP_pressure;BME280_temperature;BME280_humidity;BME280_pressure;Samples;Min_cycle;Max_cycle;Signal;HPM_P1;HPM_P2
2023/07/04 00:05:24;;;;;;;0.53;0.40;;;;;;;;;;20994757;28;20288;-64
2023/07/04 00:15:26;;;;;;;1.07;0.50;;;;;;;;;;20980067;28;20232;-64
2023/07/04 00:25:28;;;;;;;0.53;0.40;;;;;;;;;;21016275;28;20254;-64
2023/07/04 00:35:30;;;;;;;0.93;0.53;;;;;;;;;;21023556;22;20700;-77
2023/07/04 00:45:35;;;;;;;1.57;0.70;;;;;;;;;;20940721;28;20290;-76
2023/07/04 00:55:39;;;;;;;1.43;0.50;;;19.80;99.90;;;;;;20953459;28;20228;-76
2023/07/04 01:05:46;;;;;;;1.10;0.60;;;;;;;;;;20961318;28;20513;-76
2023/07/04 01:15:49;;;;;;;0.93;0.50;;;;;;;;;;20885121;28;20227;-74
2023/07/04 01:26:00;;;;;;;0.70;0.50;;;;;;;;;;20909100;28;20726;-74
2023/07/04 01:36:02;;;;;;;1.63;0.77;;;;;;;;;;20898629;28;20227;-74
2023/07/04 01:46:04;;;;;;;0.93;0.50;;;;;;;;;;20899146;28;20270;-74
2023/07/04 01:56:06;;;;;;;1.60;0.50;;;;;;;;;;20891143;28;20290;-74
2023/07/04 02:06:08;;;;;;;0.90;0.43;;;;;;;;;;20968290;28;20231;-74
2023/07/04 02:16:11;;;;;;;0.50;0.40;;;;;;;;;;20889742;28;20232;-75
2023/07/04 02:26:13;;;;;;;1.33;0.40;;;;;;;;;;20878359;28;20692;-74
2023/07/04 02:36:14;;;;;;;1.33;0.60;;;;;;;;;;20893484;28;20239;-74
2023/07/04 02:46:16;;;;;;;0.77;0.50;;;;;;;;;;20914570;28;20697;-74
2023/07/04 02:56:21;;;;;;;2.50;0.60;;;;;;;;;;20934373;22;20249;-82
2023/07/04 03:06:25;;;;;;;0.60;0.47;;;;;;;;;;20911635;28;20266;-82
2023/07/04 03:16:30;;;;;;;1.40;0.63;;;;;;;;;;20960680;28;20297;-82
2023/07/04 03:26:34;;;;;;;1.70;0.67;;;;;;;;;;20899687;28;20234;-82
2023/07/04 03:36:45;;;;;;;1.40;0.67;;;;;;;;;;20924379;28;20244;-82
2023/07/04 03:46:47;;;;;;;1.50;0.60;;;;;;;;;;20933410;28;20256;-81
2023/07/04 03:56:51;;;;;;;0.90;0.67;;;;;;;;;;20914571;28;20233;-81
2023/07/04 04:07:07;;;;;;;1.53;0.80;;;;;;;;;;20922233;28;20210;-82
2023/07/04 04:17:27;;;;;;;0.70;0.60;;;;;;;;;;20914435;28;20234;-80
2023/07/04 04:27:30;;;;;;;1.03;0.73;;;;;;;;;;20933900;28;20307;-81
2023/07/04 04:37:32;;;;;;;1.40;0.63;;;;;;;;;;20921597;28;20238;-81
2023/07/04 04:47:34;;;;;;;1.10;0.70;;;;;;;;;;20920050;28;20227;-80
2023/07/04 04:57:36;;;;;;;0.80;0.60;;;;;;;;;;20932459;28;20235;-80
2023/07/04 05:07:38;;;;;;;1.03;0.70;;;;;;;;;;20960114;28;20218;-82
2023/07/04 05:17:40;;;;;;;1.10;0.60;;;;;;;;;;20974305;28;20260;-82
2023/07/04 05:27:41;;;;;;;1.00;0.80;;;;;;;;;;20966946;28;20230;-82
2023/07/04 05:37:43;;;;;;;2.17;0.90;;;;;;;;;;20911032;28;20342;-82
2023/07/04 05:47:45;;;;;;;2.37;0.80;;;;;;;;;;20932011;28;20227;-82
2023/07/04 05:58:14;;;;;;;1.43;0.90;;;;;;;;;;20924100;28;20222;-82
2023/07/04 06:08:21;;;;;;;1.40;0.87;;;;;;;;;;20907525;28;20245;-81
2023/07/04 06:18:24;;;;;;;1.90;0.90;;;;;;;;;;20919522;28;20230;-81
2023/07/04 06:28:29;;;;;;;1.87;0.70;;;;;;;;;;20914087;28;20233;-82
2023/07/04 06:38:35;;;;;;;2.00;0.83;;;;;;;;;;20915682;28;20294;-82
2023/07/04 06:48:40;;;;;;;1.17;0.80;;;;;;;;;;20941245;28;20212;-81
2023/07/04 06:58:52;;;;;;;1.57;0.93;;;;;;;;;;20914843;28;20219;-81
2023/07/04 07:08:54;;;;;;;4.20;1.00;;;;;;;;;;20943927;28;20768;-81
2023/07/04 07:18:56;;;;;;;1.37;0.80;;;;;;;;;;20918747;28;20363;-81
2023/07/04 07:28:59;;;;;;;1.93;0.80;;;;;;;;;;20895542;28;20246;-81
2023/07/04 07:39:04;;;;;;;1.63;1.10;;;;;;;;;;20923811;28;20220;-82
2023/07/04 07:49:06;;;;;;;1.80;0.80;;;;;;;;;;20919595;28;20232;-81
2023/07/04 07:59:08;;;;;;;1.93;0.90;;;;;;;;;;20929225;28;20227;-80
2023/07/04 08:09:11;;;;;;;1.50;0.90;;;;;;;;;;20915099;28;20293;-81
2023/07/04 08:19:16;;;;;;;3.90;1.13;;;;;;;;;;20944017;28;20229;-81
2023/07/04 08:29:18;;;;;;;3.93;1.03;;;;;;;;;;20934215;28;20247;-82
2023/07/04 08:39:19;;;;;;;1.97;0.97;;;;;;;;;;20923600;28;20305;-82
2023/07/04 08:49:40;;;;;;;1.50;0.87;;;;;;;;;;20911570;28;20221;-82
2023/07/04 08:59:44;;;;;;;2.90;1.10;;;;;;;;;;20942796;28;20261;-81
2023/07/04 09:10:02;;;;;;;2.37;1.10;;;;;;;;;;20907142;28;20224;-81
2023/07/04 09:20:10;;;;;;;2.10;0.87;;;23.50;99.90;;;;;;20941849;28;20262;-82
2023/07/04 09:30:12;;;;;;;3.42;1.23;;;;;;;;;;20890284;28;20299;-82
2023/07/04 09:40:14;;;;;;;2.33;0.98;;;;;;;;;;20937301;28;20233;-81
2023/07/04 09:50:23;;;;;;;1.60;1.00;;;24.30;93.70;;;;;;20964668;28;20239;-81
2023/07/04 10:00:26;;;;;;;1.75;0.75;;;;;;;;;;20924722;28;20290;-82
2023/07/04 10:10:29;;;;;;;1.33;0.90;;;;;;;;;;20945375;28;20219;-82
2023/07/04 10:20:37;;;;;;;2.17;1.20;;;;;;;;;;20930225;28;20247;-82
2023/07/04 10:30:44;;;;;;;1.88;0.95;;;;;;;;;;20960332;28;20228;-81
2023/07/04 10:40:45;;;;;;;2.08;1.10;;;;;;;;;;20958839;28;20291;-81
2023/07/04 10:50:52;;;;;;;2.70;1.35;;;24.90;94.40;;;;;;20967072;28;20277;-82
2023/07/04 11:00:54;;;;;;;2.53;1.20;;;;;;;;;;20956336;28;20241;-82
2023/07/04 11:11:00;;;;;;;2.42;1.10;;;;;;;;;;20964150;28;20226;-81
2023/07/04 11:21:16;;;;;;;2.97;0.90;;;25.80;87.60;;;;;;20918940;28;20286;-83
2023/07/04 11:31:21;;;;;;;1.75;1.10;;;;;;;;;;20933817;28;20216;-82
2023/07/04 11:41:27;;;;;;;1.35;0.80;;;;;;;;;;20932240;28;20240;-82
2023/07/04 11:51:29;;;;;;;1.77;0.90;;;;;;;;;;20914861;28;20655;-82
2023/07/04 12:01:51;;;;;;;3.03;1.38;;;24.70;89.30;;;;;;20934574;28;20309;-82
2023/07/04 12:11:55;;;;;;;2.38;1.08;;;;;;;;;;20913261;28;20299;-82
2023/07/04 12:21:59;;;;;;;1.40;0.88;;;;;;;;;;20912706;28;20260;-81
2023/07/04 12:32:05;;;;;;;1.50;0.90;;;;;;;;;;20929476;28;20701;-81
2023/07/04 12:42:09;;;;;;;3.78;1.00;;;;;;;;;;20911161;28;20262;-80
2023/07/04 12:52:12;;;;;;;1.73;1.10;;;;;;;;;;20946670;28;20290;-81
2023/07/04 13:02:22;;;;;;;2.72;1.10;;;;;;;;;;20901221;28;20216;-82
2023/07/04 13:12:33;;;;;;;1.88;1.10;;;26.00;91.30;;;;;;20934202;28;20221;-82
2023/07/04 13:22:35;;;;;;;3.45;0.90;;;;;;;;;;20915165;28;20242;-81
2023/07/04 13:32:41;;;;;;;5.97;1.20;;;25.60;89.20;;;;;;20938603;28;20283;-81
2023/07/04 13:43:01;;;;;;;2.20;1.08;;;;;;;;;;20958054;28;20667;-82
2023/07/04 13:53:04;;;;;;;2.15;0.82;;;;;;;;;;20940253;28;20235;-83
2023/07/04 14:03:06;;;;;;;1.92;0.90;;;;;;;;;;20909154;28;20304;-83
2023/07/04 14:13:08;;;;;;;1.38;0.90;;;;;;;;;;20908302;28;20326;-82
2023/07/04 14:23:10;;;;;;;2.10;1.00;;;;;;;;;;20935279;28;20254;-82
2023/07/04 14:33:12;;;;;;;2.08;1.00;;;;;;;;;;20892253;28;20251;-81
2023/07/04 14:43:14;;;;;;;2.17;1.10;;;;;;;;;;20923206;28;20280;-82
2023/07/04 14:53:15;;;;;;;2.10;1.00;;;;;;;;;;20937239;28;20306;-82
2023/07/04 15:03:17;;;;;;;3.83;1.38;;;;;;;;;;20977133;28;20256;-82
2023/07/04 15:13:19;;;;;;;2.05;0.90;;;;;;;;;;20964031;28;20911;-82
2023/07/04 15:23:21;;;;;;;1.73;1.10;;;;;;;;;;20959846;28;20606;-82
2023/07/04 15:33:23;;;;;;;3.25;1.10;;;;;;;;;;20896433;28;20693;-82
2023/07/04 15:43:25;;;;;;;2.00;1.17;;;;;;;;;;20884069;28;20284;-83
2023/07/04 15:53:27;;;;;;;1.38;1.00;;;;;;;;;;20887369;28;20239;-82
2023/07/04 16:03:30;;;;;;;2.55;1.10;;;;;;;;;;20946582;28;20287;-82
2023/07/04 16:13:32;;;;;;;2.03;1.17;;;;;;;;;;20925341;28;20231;-83
2023/07/04 16:23:34;;;;;;;1.15;0.80;;;;;;;;;;20904616;28;20269;-82
2023/07/04 16:33:36;;;;;;;2.33;0.90;;;;;;;;;;20933209;28;20356;-82
2023/07/04 16:43:39;;;;;;;3.15;1.08;;;;;;;;;;20942899;28;20286;-82
2023/07/04 16:53:41;;;;;;;1.63;0.82;;;;;;;;;;20926555;28;20271;-81
2023/07/04 17:03:44;;;;;;;2.55;1.08;;;;;;;;;;20930391;28;20221;-82
2023/07/04 17:13:46;;;;;;;1.55;1.05;;;;;;;;;;20943591;28;20224;-83
2023/07/04 17:23:59;;;;;;;1.25;0.80;;;;;;;;;;20939523;28;20228;-83
2023/07/04 17:34:04;;;;;;;4.13;0.90;;;;;;;;;;20948099;28;20236;-82
2023/07/04 17:44:08;;;;;;;1.73;0.73;;;;;;;;;;20947589;28;20221;-82
2023/07/04 17:54:17;;;;;;;0.90;0.52;;;;;;;;;;20973481;28;20250;-81
2023/07/04 18:04:21;;;;;;;1.15;0.60;;;;;;;;;;20974313;28;20273;-79
2023/07/04 18:14:26;;;;;;;1.05;0.50;;;;;;;;;;20964265;28;20737;-80
2023/07/04 18:24:27;;;;;;;1.52;0.77;;;;;;;;;;20939880;28;20269;-80
2023/07/04 18:34:29;;;;;;;1.13;0.60;;;;;;;;;;20930225;28;21128;-82
2023/07/04 18:44:32;;;;;;;1.50;0.68;;;;;;;;;;20904475;28;20228;-81
2023/07/04 18:54:34;;;;;;;0.52;0.40;;;;;;;;;;20951500;28;20812;-82
2023/07/04 19:04:36;;;;;;;1.67;0.50;;;;;;;;;;20915351;28;20873;-82
2023/07/04 19:14:38;;;;;;;0.93;0.50;;;;;;;;;;20931859;28;20294;-80
2023/07/04 19:35:52;;;;;;;0.77;0.50;;;;;;;;;;20930234;28;20342;-82
2023/07/04 19:45:58;;;;;;;1.85;0.65;;;;;;;;;;20946198;28;20501;-81
2023/07/04 19:56:00;;;;;;;1.30;0.52;;;;;;;;;;20939018;28;20238;-82
2023/07/04 20:06:03;;;;;;;0.95;0.40;;;;;;;;;;20927308;28;20224;-81
2023/07/04 20:16:12;;;;;;;0.57;0.38;;;;;;;;;;20887888;28;20661;-82
2023/07/04 20:26:15;;;;;;;0.68;0.40;;;;;;;;;;20913847;28;20212;-82
2023/07/04 20:36:17;;;;;;;0.95;0.50;;;;;;;;;;20896557;28;20238;-81
2023/07/04 20:46:18;;;;;;;0.65;0.50;;;;;;;;;;20918202;28;20597;-81
2023/07/04 20:56:20;;;;;;;1.33;0.40;;;;;;;;;;20965595;28;20299;-82
2023/07/04 21:06:22;;;;;;;0.63;0.38;;;;;;;;;;20988303;28;20588;-81
2023/07/04 21:16:23;;;;;;;0.55;0.32;;;;;;;;;;20929704;28;20303;-81
2023/07/04 21:26:25;;;;;;;0.68;0.40;;;;;;;;;;20932169;28;20227;-82
2023/07/04 21:36:27;;;;;;;0.63;0.40;;;;;;;;;;20917174;28;20233;-80
2023/07/04 21:46:31;;;;;;;0.73;0.35;;;;;;;;;;20924575;28;20229;-81
2023/07/04 21:56:32;;;;;;;0.57;0.40;;;;;;;;;;20967554;28;20765;-81
2023/07/04 22:06:34;;;;;;;0.35;0.20;;;;;;;;;;20942494;28;20213;-80
2023/07/04 22:16:36;;;;;;;0.38;0.30;;;;;;;;;;20960084;28;20264;-80
2023/07/04 22:26:37;;;;;;;0.98;0.40;;;;;;;;;;20965858;28;20223;-80
2023/07/04 22:36:40;;;;;;;0.70;0.45;;;;;;;;;;20948975;28;20242;-81
2023/07/04 22:46:42;;;;;;;1.45;0.57;;;;;;;;;;21020662;28;20272;-81
2023/07/04 22:56:44;;;;;;;1.27;0.60;;;;;;;;;;20973134;28;20235;-82
2023/07/04 23:06:46;;;;;;;0.80;0.50;;;;;;;;;;20926926;28;20221;-82
2023/07/04 23:16:47;;;;;;;0.70;0.43;;;;;;;;;;20889909;28;20251;-82
2023/07/04 23:26:49;;;;;;;0.55;0.40;;;;;;;;;;20937721;28;20230;-82
2023/07/04 23:36:51;;;;;;;0.70;0.60;;;;;;;;;;20942726;28;20242;-80
2023/07/04 23:46:53;;;;;;;1.30;0.50;;;;;;;;;;20898277;28;20781;-82
2023/07/04 23:56:55;;;;;;;0.90;0.60;;;;;;;;;;20933625;28;20792;-83
